createdAt,value
2023-11-28T00:02:11.403Z,5.30
2023-11-28T00:04:39.002Z,5.78
2023-11-28T00:07:06.589Z,5.75
2023-11-28T00:09:34.039Z,5.28
2023-11-28T00:12:01.539Z,4.90
2023-11-28T00:14:29.208Z,5.13
2023-11-28T00:16:56.891Z,5.20
2023-11-28T00:19:25.974Z,5.40
2023-11-28T00:21:53.680Z,5.40
2023-11-28T00:24:21.190Z,5.22
2023-11-28T00:26:48.688Z,5.13
2023-11-28T00:29:16.262Z,5.38
2023-11-28T00:31:44.459Z,5.00
2023-11-28T00:34:12.076Z,4.60
2023-11-28T00:36:39.832Z,4.95
2023-11-28T00:39:07.282Z,4.28
2023-11-28T00:41:34.858Z,4.28
2023-11-28T00:44:02.593Z,4.43
2023-11-28T00:46:30.761Z,4.70
2023-11-28T00:48:58.352Z,4.35
2023-11-28T00:51:25.897Z,4.13
2023-11-28T00:53:53.390Z,4.15
2023-11-28T00:56:21.613Z,4.05
2023-11-28T00:58:50.307Z,3.88
2023-11-28T01:01:19.270Z,3.97
2023-11-28T01:03:47.557Z,3.67
2023-11-28T01:06:15.568Z,4.18
2023-11-28T01:08:43.347Z,3.90
2023-11-28T01:11:11.513Z,3.80
2023-11-28T01:13:39.091Z,5.05
2023-11-28T01:16:09.408Z,4.18
2023-11-28T01:18:37.052Z,3.63
2023-11-28T01:21:04.697Z,4.13
2023-11-28T01:23:32.298Z,3.40
2023-11-28T01:26:00.290Z,4.35
2023-11-28T01:28:28.256Z,3.85
2023-11-28T01:30:57.436Z,3.90
2023-11-28T01:33:25.067Z,3.63
2023-11-28T01:35:52.659Z,5.00
2023-11-28T01:38:20.135Z,3.65
2023-11-28T01:40:51.415Z,3.60
2023-11-28T01:43:29.850Z,4.40
2023-11-28T01:46:16.449Z,4.07
2023-11-28T01:49:04.025Z,4.15
2023-11-28T01:51:31.881Z,3.85
2023-11-28T01:54:03.341Z,3.75
2023-11-28T01:56:31.958Z,3.72
2023-11-28T01:59:00.572Z,4.55
2023-11-28T02:01:29.726Z,4.82
2023-11-28T02:03:57.346Z,4.53
2023-11-28T02:06:24.808Z,4.47
2023-11-28T02:08:52.404Z,3.90
2023-11-28T02:11:20.336Z,4.40
2023-11-28T02:13:48.069Z,3.70
2023-11-28T02:16:17.116Z,4.28
2023-11-28T02:18:44.983Z,3.47
2023-11-28T02:21:14.913Z,3.75
2023-11-28T02:23:42.483Z,3.38
2023-11-28T02:26:21.446Z,3.90
2023-11-28T02:28:49.095Z,3.40
2023-11-28T02:31:16.611Z,3.60
2023-11-28T02:33:44.205Z,3.50
2023-11-28T02:36:12.354Z,3.50
2023-11-28T02:38:39.876Z,3.80
2023-11-28T02:41:07.844Z,3.55
2023-11-28T02:43:35.554Z,3.50
2023-11-28T02:46:03.536Z,3.70
2023-11-28T02:48:31.218Z,3.42
2023-11-28T02:50:58.717Z,3.55
2023-11-28T02:53:27.018Z,3.60
2023-11-28T02:55:55.097Z,3.80
2023-11-28T02:58:23.285Z,3.22
2023-11-28T03:00:50.752Z,3.75
2023-11-28T03:03:18.214Z,3.65
2023-11-28T03:05:45.720Z,3.83
2023-11-28T03:08:13.879Z,4.05
2023-11-28T03:10:41.628Z,3.63
2023-11-28T03:13:09.034Z,3.90
2023-11-28T03:15:36.475Z,4.40
2023-11-28T03:18:04.109Z,4.10
2023-11-28T03:20:31.754Z,3.88
2023-11-28T03:22:59.224Z,3.92
2023-11-28T03:25:26.808Z,3.55
2023-11-28T03:27:54.266Z,3.70
2023-11-28T03:30:23.428Z,3.42
2023-11-28T03:32:51.012Z,3.60
2023-11-28T03:35:19.850Z,3.97
2023-11-28T03:37:48.205Z,4.05
2023-11-28T03:40:16.179Z,3.42
2023-11-28T03:42:44.193Z,3.00
2023-11-28T03:45:13.929Z,3.22
2023-11-28T03:47:41.622Z,3.40
2023-11-28T03:50:09.628Z,3.53
2023-11-28T03:52:37.171Z,3.35
2023-11-28T03:55:04.937Z,3.72
2023-11-28T03:57:32.738Z,2.95
2023-11-28T04:00:00.317Z,4.22
2023-11-28T04:02:28.081Z,3.38
2023-11-28T04:04:56.641Z,3.97
2023-11-28T04:07:24.340Z,3.60
2023-11-28T04:09:52.224Z,3.22
2023-11-28T04:12:20.978Z,3.20
2023-11-28T04:14:48.770Z,3.70
2023-11-28T04:17:16.249Z,3.00
2023-11-28T04:19:43.932Z,3.17
2023-11-28T04:22:11.590Z,4.13
2023-11-28T04:24:41.535Z,3.60
2023-11-28T04:27:13.436Z,3.10
2023-11-28T04:29:41.604Z,3.45
2023-11-28T04:32:09.284Z,2.90
2023-11-28T04:34:37.962Z,3.35
2023-11-28T04:37:05.960Z,3.75
2023-11-28T04:39:35.296Z,3.63
2023-11-28T04:42:03.804Z,4.25
2023-11-28T04:44:31.253Z,3.72
2023-11-28T04:46:58.762Z,4.50
2023-11-28T04:49:26.304Z,3.80
2023-11-28T04:51:53.799Z,3.67
2023-11-28T04:54:21.850Z,3.65
2023-11-28T04:56:49.378Z,4.07
2023-11-28T04:59:17.280Z,3.58
2023-11-28T05:01:48.572Z,3.95
2023-11-28T05:04:16.664Z,3.60
2023-11-28T05:06:44.507Z,3.47
2023-11-28T05:09:12.618Z,4.47
2023-11-28T05:11:42.965Z,3.50
2023-11-28T05:14:10.652Z,4.22
2023-11-28T05:16:45.647Z,4.00
2023-11-28T05:19:19.973Z,3.88
2023-11-28T05:21:47.402Z,3.63
2023-11-28T05:24:15.409Z,3.97
2023-11-28T05:26:42.932Z,4.10
2023-11-28T05:29:10.531Z,3.55
2023-11-28T05:31:38.158Z,3.95
2023-11-28T05:34:05.664Z,3.60
2023-11-28T05:36:33.182Z,4.10
2023-11-28T05:39:01.567Z,3.03
2023-11-28T05:41:29.316Z,3.13
2023-11-28T05:43:57.707Z,3.05
2023-11-28T05:46:25.828Z,2.78
2023-11-28T05:48:53.624Z,3.30
2023-11-28T05:51:21.428Z,3.22
2023-11-28T05:53:49.297Z,3.15
2023-11-28T05:56:16.755Z,3.17
2023-11-28T05:58:44.431Z,2.90
2023-11-28T06:01:16.104Z,3.08
2023-11-28T06:06:11.272Z,3.45
2023-11-28T06:08:38.707Z,4.00
2023-11-28T06:11:08.744Z,2.67
2023-11-28T06:13:37.006Z,3.20
2023-11-28T06:16:08.530Z,3.55
2023-11-28T06:18:39.041Z,3.13
2023-11-28T06:21:09.796Z,2.88
2023-11-28T06:26:05.665Z,2.90
2023-11-28T06:28:34.764Z,2.65
2023-11-28T06:31:02.581Z,2.95
2023-11-28T06:33:30.254Z,2.70
2023-11-28T06:35:57.946Z,3.42
2023-11-28T06:38:25.486Z,3.85
2023-11-28T06:40:52.971Z,3.47
2023-11-28T06:43:20.440Z,3.28
2023-11-28T06:45:47.900Z,2.78
2023-11-28T06:48:15.887Z,3.20
2023-11-28T06:50:43.435Z,3.50
2023-11-28T06:53:11.340Z,4.20
2023-11-28T06:55:38.918Z,3.58
2023-11-28T06:58:06.361Z,3.30
2023-11-28T07:00:33.955Z,3.50
2023-11-28T07:03:02.525Z,2.95
2023-11-28T07:05:30.187Z,3.80
2023-11-28T07:07:58.149Z,3.55
2023-11-28T07:10:25.951Z,3.58
2023-11-28T07:12:53.409Z,4.03
2023-11-28T07:15:20.902Z,3.88
2023-11-28T07:17:48.836Z,3.90
2023-11-28T07:20:17.032Z,3.65
2023-11-28T07:22:44.657Z,3.80
2023-11-28T07:25:15.578Z,4.13
2023-11-28T07:30:11.458Z,4.85
2023-11-28T07:32:38.903Z,4.20
2023-11-28T07:35:06.906Z,4.65
2023-11-28T07:37:34.364Z,5.28
2023-11-28T07:40:02.000Z,5.07
2023-11-28T07:42:29.652Z,3.85
2023-11-28T07:44:58.778Z,4.95
2023-11-28T07:47:26.221Z,4.95
2023-11-28T07:49:55.229Z,4.40
2023-11-28T07:52:23.198Z,5.63
2023-11-28T07:54:50.692Z,6.20
2023-11-28T07:57:18.150Z,5.32
2023-11-28T07:59:48.059Z,5.45
2023-11-28T08:02:15.887Z,6.22
2023-11-28T08:04:43.865Z,5.65
2023-11-28T08:07:12.875Z,5.82
2023-11-28T08:09:41.039Z,5.88
2023-11-28T08:12:09.182Z,6.78
2023-11-28T08:14:36.697Z,5.88
2023-11-28T08:17:04.251Z,5.18
2023-11-28T08:19:31.777Z,6.22
2023-11-28T08:21:59.420Z,5.63
2023-11-28T08:24:27.134Z,6.28
2023-11-28T08:26:54.701Z,5.95
2023-11-28T08:29:22.261Z,5.80
2023-11-28T08:31:49.942Z,5.65
2023-11-28T08:34:18.573Z,5.45
2023-11-28T08:36:46.522Z,5.97
2023-11-28T08:39:16.081Z,4.90
2023-11-28T08:41:43.634Z,5.00
2023-11-28T08:44:11.236Z,5.32
2023-11-28T08:46:38.917Z,6.15
2023-11-28T08:49:06.935Z,5.93
2023-11-28T08:51:35.347Z,5.28
2023-11-28T08:54:02.933Z,5.10
2023-11-28T08:56:30.388Z,4.18
2023-11-28T08:58:57.987Z,4.22
2023-11-28T09:01:25.469Z,3.78
2023-11-28T09:03:53.514Z,4.13
2023-11-28T09:06:21.700Z,3.63
2023-11-28T09:11:17.517Z,6.22
2023-11-28T09:13:45.081Z,4.47
2023-11-28T09:16:13.957Z,3.55
2023-11-28T09:18:41.451Z,3.05
2023-11-28T09:21:09.877Z,2.72
2023-11-28T09:23:37.708Z,3.78
2023-11-28T09:26:05.891Z,3.65
2023-11-28T09:28:38.780Z,3.60
2023-11-28T09:31:06.921Z,3.60
2023-11-28T09:33:35.974Z,3.33
2023-11-28T09:36:03.681Z,3.60
2023-11-28T09:38:33.169Z,3.60
2023-11-28T09:41:01.121Z,3.95
2023-11-28T09:43:29.015Z,3.65
2023-11-28T09:45:58.643Z,3.75
2023-11-28T09:48:28.372Z,4.28
2023-11-28T09:50:56.750Z,3.65
2023-11-28T09:53:29.993Z,3.88
2023-11-28T09:56:01.823Z,4.25
2023-11-28T09:58:30.943Z,3.95
2023-11-28T10:01:02.817Z,4.35
2023-11-28T10:03:30.856Z,4.20
2023-11-28T10:06:00.852Z,4.07
2023-11-28T10:08:32.631Z,3.78
2023-11-28T10:11:02.775Z,4.25
2023-11-28T10:13:30.737Z,3.60
2023-11-28T10:16:00.946Z,3.88
2023-11-28T10:18:28.505Z,3.67
2023-11-28T10:20:56.749Z,4.20
2023-11-28T10:23:25.849Z,3.85
2023-11-28T10:25:54.289Z,3.40
2023-11-28T10:28:22.129Z,4.15
2023-11-28T10:30:54.107Z,3.35
2023-11-28T10:33:21.918Z,4.05
2023-11-28T10:35:50.242Z,3.28
2023-11-28T10:38:19.165Z,2.92
2023-11-28T10:40:48.824Z,3.33
2023-11-28T10:43:17.159Z,3.00
2023-11-28T10:45:46.068Z,3.38
2023-11-28T10:48:14.411Z,3.75
2023-11-28T10:50:43.411Z,3.15
2023-11-28T10:53:14.620Z,3.13
2023-11-28T10:55:50.978Z,4.30
2023-11-28T10:58:18.923Z,3.03
2023-11-28T11:00:47.745Z,4.28
2023-11-28T11:03:17.430Z,4.47
2023-11-28T11:05:46.224Z,4.00
2023-11-28T11:08:14.161Z,3.90
2023-11-28T11:10:42.424Z,3.38
2023-11-28T11:13:19.598Z,3.42
2023-11-28T11:16:24.392Z,2.78
2023-11-28T11:18:53.429Z,2.75
2023-11-28T11:21:24.093Z,2.67
2023-11-28T11:23:54.905Z,3.03
2023-11-28T11:26:38.395Z,2.85
2023-11-28T11:29:25.489Z,3.03
2023-11-28T11:32:02.462Z,2.72
2023-11-28T11:34:47.869Z,4.05
2023-11-28T11:37:30.506Z,2.75
2023-11-28T11:40:00.742Z,2.92
2023-11-28T11:42:30.079Z,2.30
2023-11-28T11:45:01.306Z,2.65
2023-11-28T11:47:31.867Z,2.10
2023-11-28T11:50:01.921Z,2.58
2023-11-28T11:52:30.646Z,2.43
2023-11-28T11:55:06.189Z,2.60
2023-11-28T11:57:34.088Z,2.33
2023-11-28T12:00:01.784Z,1.85
2023-11-28T12:02:39.850Z,3.00
2023-11-28T12:05:08.636Z,2.28
2023-11-28T12:07:36.800Z,2.30
2023-11-28T12:10:08.640Z,2.55
2023-11-28T12:12:36.999Z,2.47
2023-11-28T12:15:05.060Z,2.30
2023-11-28T12:17:32.935Z,2.55
2023-11-28T12:20:00.778Z,2.10
2023-11-28T12:22:28.484Z,2.58
2023-11-28T12:24:55.901Z,2.55
2023-11-28T12:27:24.228Z,3.20
2023-11-28T12:29:52.164Z,2.03
2023-11-28T12:32:19.957Z,2.10
2023-11-28T12:34:47.502Z,1.98
2023-11-28T12:37:21.184Z,2.53
2023-11-28T12:39:53.187Z,2.30
2023-11-28T12:42:20.953Z,2.05
2023-11-28T12:44:49.733Z,2.35
2023-11-28T12:47:17.280Z,2.15
2023-11-28T12:49:46.988Z,2.60
2023-11-28T12:52:16.755Z,2.30
2023-11-28T12:54:44.532Z,2.22
2023-11-28T12:57:14.510Z,1.90
2023-11-28T12:59:44.162Z,2.15
2023-11-28T13:02:11.896Z,2.00
2023-11-28T13:04:39.387Z,1.67
2023-11-28T13:07:14.244Z,1.90
2023-11-28T13:09:49.928Z,1.73
2023-11-28T13:12:19.226Z,1.63
2023-11-28T13:14:47.007Z,1.98
2023-11-28T13:17:15.785Z,1.90
2023-11-28T13:19:43.300Z,1.88
2023-11-28T13:22:12.891Z,1.90
2023-11-28T13:24:40.922Z,1.95
2023-11-28T13:27:08.467Z,1.67
2023-11-28T13:29:39.261Z,1.95
2023-11-28T13:32:08.520Z,1.90
2023-11-28T13:34:42.119Z,2.28
2023-11-28T13:37:10.108Z,1.77
2023-11-28T13:39:37.689Z,1.58
2023-11-28T13:42:05.430Z,1.80
2023-11-28T13:44:32.990Z,2.08
2023-11-28T13:47:00.954Z,1.88
2023-11-28T13:49:28.733Z,1.90
2023-11-28T13:51:56.587Z,1.70
2023-11-28T13:54:24.203Z,1.92
2023-11-28T13:56:51.698Z,1.60
2023-11-28T13:59:20.013Z,2.00
2023-11-28T14:01:48.136Z,1.52
2023-11-28T14:04:15.909Z,1.60
2023-11-28T14:06:43.422Z,1.60
2023-11-28T14:09:13.514Z,1.80
2023-11-28T14:11:41.130Z,1.90
2023-11-28T14:14:08.682Z,2.25
2023-11-28T14:16:36.191Z,1.80
2023-11-28T14:19:03.739Z,2.47
2023-11-28T14:21:32.913Z,2.13
2023-11-28T14:24:00.411Z,2.05
2023-11-28T14:26:27.856Z,1.38
2023-11-28T14:28:55.412Z,1.80
2023-11-28T14:31:23.377Z,1.70
2023-11-28T14:33:50.977Z,1.75
2023-11-28T14:36:18.501Z,1.83
2023-11-28T14:38:47.393Z,1.88
2023-11-28T14:41:15.034Z,2.05
2023-11-28T14:43:42.556Z,2.40
2023-11-28T14:46:10.704Z,2.00
2023-11-28T14:48:38.898Z,2.85
2023-11-28T14:51:07.651Z,2.63
2023-11-28T14:53:35.311Z,2.72
2023-11-28T14:56:02.869Z,2.10
2023-11-28T14:58:30.410Z,2.10
2023-11-28T15:00:57.919Z,2.33
2023-11-28T15:03:25.515Z,2.42
2023-11-28T15:05:53.774Z,2.22
2023-11-28T15:08:21.692Z,2.10
2023-11-28T15:10:49.248Z,2.70
2023-11-28T15:13:16.702Z,2.25
2023-11-28T15:15:46.137Z,2.20
2023-11-28T15:18:13.647Z,2.55
2023-11-28T15:20:41.257Z,2.00
2023-11-28T15:23:11.305Z,2.42
2023-11-28T15:25:39.710Z,1.85
2023-11-28T15:28:07.149Z,2.08
2023-11-28T15:30:34.558Z,2.38
2023-11-28T15:33:02.126Z,2.55
2023-11-28T15:35:30.695Z,2.50
2023-11-28T15:38:02.001Z,2.20
2023-11-28T15:40:33.096Z,2.30
2023-11-28T15:43:03.342Z,3.20
2023-11-28T15:45:33.152Z,3.28
2023-11-28T15:48:01.690Z,3.10
2023-11-28T15:50:31.644Z,2.65
2023-11-28T15:52:59.724Z,2.78
2023-11-28T15:55:28.629Z,3.45
2023-11-28T15:57:56.918Z,3.10
2023-11-28T16:00:26.774Z,2.55
2023-11-28T16:02:55.310Z,3.28
2023-11-28T16:05:24.055Z,2.85
2023-11-28T16:07:54.286Z,3.08
2023-11-28T16:10:21.882Z,3.08
2023-11-28T16:12:49.830Z,3.03
2023-11-28T16:15:18.552Z,3.40
2023-11-28T16:17:46.346Z,3.30
2023-11-28T16:20:14.038Z,2.63
2023-11-28T16:22:42.478Z,2.70
2023-11-28T16:25:10.238Z,2.92
2023-11-28T16:27:37.811Z,2.90
2023-11-28T16:30:05.679Z,3.35
2023-11-28T16:32:35.935Z,2.97
2023-11-28T16:35:03.758Z,2.58
2023-11-28T16:37:33.342Z,2.75
2023-11-28T16:40:01.064Z,3.33
2023-11-28T16:42:28.644Z,3.40
2023-11-28T16:44:57.456Z,3.20
2023-11-28T16:47:24.920Z,4.28
2023-11-28T16:49:52.529Z,3.08
2023-11-28T16:52:20.317Z,4.13
2023-11-28T16:54:47.932Z,3.63
2023-11-28T16:57:15.352Z,3.80
2023-11-28T16:59:42.760Z,3.70
2023-11-28T17:02:10.338Z,5.07
2023-11-28T17:04:38.157Z,3.92
2023-11-28T17:07:05.735Z,4.18
2023-11-28T17:09:35.042Z,4.40
2023-11-28T17:12:02.706Z,4.93
2023-11-28T17:14:31.454Z,4.85
2023-11-28T17:17:00.972Z,4.80
2023-11-28T17:19:28.805Z,4.57
2023-11-28T17:21:56.671Z,4.55
2023-11-28T17:24:26.720Z,4.50
2023-11-28T19:42:22.505Z,9.57
2023-11-28T19:44:51.078Z,8.95
2023-11-28T19:47:19.792Z,8.82
2023-11-28T19:49:47.477Z,8.65
2023-11-28T19:52:15.450Z,8.10
2023-11-28T19:57:35.060Z,8.68
2023-11-28T20:00:02.812Z,8.32
2023-11-28T20:02:38.807Z,8.10
2023-11-28T20:05:07.332Z,6.72
2023-11-28T20:07:39.288Z,6.78
2023-11-28T20:10:11.381Z,7.50
2023-11-28T20:12:39.433Z,7.22
2023-11-28T20:15:08.828Z,6.45
2023-11-28T20:17:37.404Z,6.65
2023-11-28T20:20:05.723Z,7.15
2023-11-28T20:22:36.572Z,6.65
2023-11-28T20:25:08.185Z,6.38
2023-11-28T20:27:36.518Z,6.72
2023-11-28T20:30:04.619Z,6.97
2023-11-28T20:32:33.158Z,6.95
2023-11-28T20:35:01.150Z,7.75
2023-11-28T20:39:59.775Z,6.43
2023-11-28T20:42:27.910Z,6.35
2023-11-28T20:44:55.529Z,7.03
2023-11-28T20:47:23.527Z,9.50
2023-11-28T20:49:51.337Z,6.85
2023-11-28T20:52:18.968Z,6.85
2023-11-28T20:54:46.692Z,6.40
2023-11-28T20:57:15.981Z,6.28
2023-11-28T20:59:43.825Z,6.82
2023-11-28T21:02:11.855Z,5.85
2023-11-28T21:04:41.163Z,6.85
2023-11-28T21:07:08.773Z,7.80
2023-11-28T21:09:36.738Z,5.70
2023-11-28T21:12:05.691Z,6.18
2023-11-28T21:14:33.963Z,7.05
2023-11-28T21:17:01.839Z,8.32
2023-11-28T21:19:29.661Z,7.30
2023-11-28T21:21:57.517Z,6.45
2023-11-28T21:24:25.769Z,5.30
2023-11-28T21:26:53.754Z,5.32
2023-11-28T21:29:21.443Z,4.95
2023-11-28T21:31:52.235Z,4.85
2023-11-28T21:36:48.006Z,5.38
2023-11-28T21:39:16.015Z,4.63
2023-11-28T21:41:44.009Z,4.90
2023-11-28T21:44:11.914Z,5.03
2023-11-28T21:46:43.946Z,4.47
2023-11-28T21:49:12.766Z,5.15
2023-11-28T21:51:46.360Z,5.43
2023-11-28T21:54:14.769Z,5.40
2023-11-28T21:56:42.749Z,5.18
2023-11-28T21:59:10.676Z,5.82
2023-11-28T22:01:38.348Z,5.00
2023-11-28T22:04:06.058Z,5.70
2023-11-28T22:06:34.474Z,5.47
2023-11-28T22:09:03.482Z,4.65
2023-11-28T22:11:35.127Z,4.93
2023-11-28T22:14:03.790Z,4.88
2023-11-28T22:16:31.656Z,5.03
2023-11-28T22:18:59.190Z,4.70
2023-11-28T22:21:27.381Z,5.30
2023-11-28T22:23:55.888Z,4.90
2023-11-28T22:26:23.937Z,4.90
2023-11-28T22:28:51.577Z,4.88
2023-11-28T22:31:19.218Z,5.35
2023-11-28T22:33:46.943Z,5.05
2023-11-28T22:36:14.775Z,4.80
2023-11-28T22:38:42.448Z,4.85
2023-11-28T22:41:13.169Z,5.05
2023-11-28T22:43:40.731Z,5.90
2023-11-28T22:46:08.302Z,5.05
2023-11-28T22:48:36.257Z,5.72
2023-11-28T22:51:05.809Z,5.75
2023-11-28T22:53:33.760Z,7.20
2023-11-28T22:56:01.306Z,6.60
2023-11-28T22:58:28.868Z,5.68
2023-11-28T23:00:57.005Z,5.72
2023-11-28T23:03:25.331Z,4.93
2023-11-28T23:05:53.480Z,5.55
2023-11-28T23:08:21.078Z,5.28
2023-11-28T23:10:48.628Z,5.38
2023-11-28T23:13:16.399Z,5.13
2023-11-28T23:15:44.797Z,6.35
2023-11-28T23:18:12.400Z,4.72
2023-11-28T23:20:39.954Z,5.00
2023-11-28T23:23:07.656Z,4.78
2023-11-28T23:25:35.642Z,4.82
2023-11-28T23:28:03.812Z,5.13
2023-11-28T23:30:31.476Z,4.78
2023-11-28T23:32:59.099Z,5.00
2023-11-28T23:35:26.818Z,5.38
2023-11-28T23:37:56.102Z,5.18
2023-11-28T23:40:23.951Z,4.78
2023-11-28T23:42:53.086Z,4.63
2023-11-28T23:45:21.423Z,4.90
2023-11-28T23:47:49.346Z,4.50
2023-11-28T23:50:17.525Z,5.00
2023-11-28T23:52:45.253Z,5.28
2023-11-28T23:55:12.858Z,4.70
2023-11-28T23:57:40.725Z,4.90
